• Join FlightAware (Why Join?)
  • Login
  • US Flag 
11:56AM EDT


 

Airport Tracker/Info


-or-


 

Live Flight TrackerFlight Track Log ✈ CTL13 ✈ 2013年05月 3日 ✈ KMDW - KGRR

Flight Track Log - Related Links

Times and Time Zones

All times are in EDT time to prevent confusion due to time zone crossing. See the CTL13 flight status page for this flight to view local times or setup timezone preferences in your user account.

Time Position Orientation Groundspeed Altitude Reporting Facility
EDT Latitude Longitude Course Direction KTS MPH feet Rate Location/Type
11:25PM 41.8000 -87.7167 90° East 123 142 1,600  Level Chicago TRACON
11:26PM 41.8000 -87.6667 90° East 132 152 2,500 780 Climbing Chicago TRACON
11:28PM 41.8000 -87.6167 90° East 135 155 3,300 720 Climbing Chicago TRACON
11:28PM 41.8167 -87.5667 66° East 139 160 4,000 720 Climbing Chicago TRACON
11:30PM 41.8219 -87.5119 83° East 137 158 4,900 360 Climbing Chicago Center
11:31PM 41.8286 -87.4581 81° East 143 165 4,900  Level Chicago Center
11:32PM 41.8333 -87.4008 84° East 156 180 4,900  Level Chicago Center
11:33PM 41.8631 -87.3506 52° Northeast 169 194 4,900  Level Chicago Center
11:34PM 41.8894 -87.3006 55° Northeast 166 191 4,900  Level Chicago Center
11:35PM 41.9189 -87.2536 50° Northeast 165 190 4,900  Level Chicago Center
11:36PM 41.9489 -87.1975 54° Northeast 167 192 4,900  Level Chicago Center
11:37PM 41.9739 -87.1550 52° Northeast 165 190 5,000  Climbing Chicago Center
11:38PM 42.0089 -87.0958 51° Northeast 169 194 4,900 -60 Descending Chicago Center
11:39PM 42.0378 -87.0461 52° Northeast 170 196 4,900  Level Chicago Center
11:40PM 42.0656 -87.0003 51° Northeast 171 197 4,900  Level Chicago Center
11:41PM 42.0919 -86.9486 55° Northeast 168 193 4,900  Level Chicago Center
11:42PM 42.1200 -86.8981 53° Northeast 169 194 4,900  Level Chicago Center
11:43PM 42.1478 -86.8472 54° Northeast 168 193 4,900  Level Chicago Center
11:44PM 42.1772 -86.7958 52° Northeast 172 198 4,900  Level Chicago Center
11:45PM 42.2056 -86.7464 52° Northeast 168 193 4,900  Level Chicago Center
11:46PM 42.2356 -86.6961 51° Northeast 171 197 4,900  Level Chicago Center
11:47PM 42.2694 -86.6353 53° Northeast 171 197 4,900  Level Chicago Center
11:48PM 42.2997 -86.5850 51° Northeast 171 197 4,900  Level Chicago Center
11:49PM 42.3278 -86.5392 50° Northeast 169 194 4,900  Level Chicago Center
11:50PM 42.3567 -86.4878 53° Northeast 171 197 4,900  Level Chicago Center
11:51PM 42.3853 -86.4361 53° Northeast 172 198 4,900  Level Chicago Center
11:52PM 42.4142 -86.3881 51° Northeast 168 193 4,900  Level Chicago Center
11:53PM 42.4436 -86.3367 52° Northeast 171 197 4,900  Level Chicago Center
11:54PM 42.4722 -86.2847 53° Northeast 172 198 4,900  Level Chicago Center
11:55PM 42.5064 -86.2239 53° Northeast 171 197 4,900  Level Chicago Center
11:56PM 42.5356 -86.1742 51° Northeast 169 194 4,900  Level Chicago Center
11:57PM 42.5642 -86.1231 53° Northeast 171 197 4,900  Level Chicago Center
11:58PM 42.6114 -86.1025 18° North 189 217 4,900 -300 Level Chicago Center
11:59PM 42.6664 -86.0972 North 197 227 4,300 -540 Descending Chicago Center
12:00AM 42.7231 -86.0903 North 204 235 3,900 -120 Descending Chicago Center
12:01AM 42.7778 -86.0856 North 200 230 4,100  Climbing Chicago Center
12:02AM 42.8211 -86.0642 20° North 192 221 3,900 -60 Descending Chicago Center
12:03AM 42.8269 -86.0053 82° East 162 186 4,000  Climbing Chicago Center
12:04AM 42.8325 -85.9469 83° East 158 182 4,000  Level Chicago Center
12:05AM 42.8369 -85.8908 84° East 153 176 4,100  Climbing Chicago Center
12:06AM 42.8422 -85.8242 84° East 149 171 4,100  Level Chicago Center
12:07AM 42.8461 -85.7689 85° East 149 171 4,100  Level Chicago Center
12:08AM 42.8522 -85.7167 81° East 143 165 4,100  Level Chicago Center
12:09AM 42.8592 -85.6664 79° East 138 159 4,100  Level Chicago Center
12:10AM 42.9011 -85.6564 10° North 162 186 4,100 -60 Level Chicago Center
12:11AM 42.9436 -85.6586 358° North 165 190 4,000 -120 Descending Chicago Center
12:13AM 42.9005 -85.6086 140° Southeast  Level FlightAware Approximate
12:20AM 42.8808 -85.5228 56° Northeast  Level Estimated
12:21AM 42.8808 -85.5228 56° Northeast  Level Estimated
12:22AM 42.8808 -85.5228 56° Northeast  Level Estimated